• Join FlightAware (Why Join?)
  • Login
  • US Flag 
09:03PM EST


 

Airport Tracker/Info


-or-


 

Live Flight TrackerFlight Track Log ✈ AWI4036 ✈ 2013年 12月 28日 ✈ KPHL - KBOS

Flight Track Log - Related Links

Times and Time Zones

All times are in EST time to prevent confusion due to time zone crossing. See the AWI4036 flight status page for this flight to view local times or setup timezone preferences in your user account.

Time Position Orientation Groundspeed Altitude Reporting Facility
EST Latitude Longitude Course Direction KTS MPH feet Rate Location/Type
08:25AM 39.8667 -75.2667 57° Northeast 170 196 700  Level Philadelphia TRACON
08:26AM 39.8167 -75.3167 218° Southwest 200 230 4,200 2,520 Climbing Philadelphia TRACON
08:27AM 40.0443 -74.9664 37° Northeast  Level Estimated
08:27AM 39.7500 -75.2833 159° South 280 322 6,600  Level Philadelphia TRACON
08:28AM 40.1015 -74.8746 37° Northeast  Level Estimated
08:28AM 39.7500 -75.1833 90° East 317 365 9,400  Level Philadelphia TRACON
08:29AM 40.1586 -74.7827 46° Northeast  Level Estimated
08:30AM 40.2156 -74.6906 57° Northeast  Level Estimated
08:30AM 39.7753 -74.9386 82° East 370 426 12,100  Level New York Center
08:31AM 39.7886 -74.7933 83° East 391 450 13,300 1,620 Climbing New York Center
08:32AM 39.8342 -74.6772 63° Northeast 378 435 15,400 1,920 Climbing New York Center
08:33AM 39.9181 -74.5978 36° Northeast 354 407 17,200 1,560 Climbing New York Center
08:34AM 40.0042 -74.5106 38° Northeast 360 414 18,600 1,440 Climbing New York Center
08:35AM 40.0925 -74.4258 36° Northeast 385 443 20,100 1,500 Climbing New York Center
08:36AM 40.1806 -74.3353 38° Northeast 396 456 21,700 1,440 Climbing New York Center
08:37AM 40.2708 -74.2447 37° Northeast 402 463 23,000 1,020 Climbing New York Center
08:38AM 40.3631 -74.1542 37° Northeast 402 463 23,800 480 Climbing New York Center
08:39AM 40.4575 -74.0578 38° Northeast 407 468 24,000 60 Climbing New York Center
08:40AM 40.5336 -73.9386 50° Northeast 412 474 24,000  Level New York Center
08:41AM 40.5925 -73.8403 52° Northeast 419 482 24,000  Level New York Center
08:42AM 40.7133 -73.6578 49° Northeast 418 481 24,000  Level Boston Center
08:44AM 40.7994 -73.5339 47° Northeast 416 479 24,000  Level Boston Center
08:45AM 40.8778 -73.4192 48° Northeast 419 482 24,000  Level Boston Center
08:46AM 40.9536 -73.3050 49° Northeast 415 478 24,000  Level Boston Center
08:47AM 41.0300 -73.1917 48° Northeast 415 478 24,000 -540 Level Boston Center
08:48AM 41.1097 -73.0767 47° Northeast 423 487 23,000 -540 Descending Boston Center
08:49AM 41.1744 -72.9311 59° Northeast 456 525 23,000  Level Boston Center
08:50AM 41.2308 -72.7772 64° Northeast 464 534 23,000  Level Boston Center
08:51AM 41.2925 -72.6158 63° Northeast 462 532 23,000  Level Boston Center
08:52AM 41.3508 -72.4619 63° Northeast 462 532 23,000  Level Boston Center
08:53AM 41.4067 -72.3089 64° Northeast 461 531 23,000  Level Boston Center
08:54AM 41.4647 -72.1547 63° Northeast 463 533 23,000 -540 Level Boston Center
08:55AM 41.5214 -72.0039 63° Northeast 459 528 22,000 -1,320 Descending Boston Center
08:56AM 41.5775 -71.8361 66° East 452 520 20,400 -1,560 Descending Boston Center
08:57AM 41.6331 -71.6881 63° Northeast 434 499 18,800 -1,620 Descending Boston Center
08:58AM 41.6856 -71.5414 64° Northeast 414 476 17,200 -2,280 Descending Boston Center
08:59AM 41.7322 -71.4131 64° Northeast 391 450 14,300 -2,760 Descending Boston Center
09:00AM 41.7853 -71.2894 60° Northeast 385 443 11,700 -1,680 Descending Boston Center
09:01AM 41.8383 -71.1639 60° Northeast 364 419 11,000 -360 Descending Boston Center
09:02AM 41.8872 -71.0497 60° Northeast 355 409 11,000  Level Boston Center
09:02AM 41.9167 -70.9833 59° Northeast 352 405 11,000  Level KA90
09:04AM 41.9833 -70.8333 59° Northeast 348 400 11,000 -240 Level KA90
09:05AM 42.0333 -70.7500 51° Northeast 319 367 10,600 -1,260 Descending KA90
09:06AM 42.0833 -70.6500 56° Northeast 298 343 8,700 -1,200 Descending KA90
09:07AM 42.1667 -70.6000 24° Northeast 275 316 8,000 -960 Descending KA90
09:08AM 42.2333 -70.5833 10° North 277 319 6,700 -1,500 Descending KA90
09:09AM 42.3167 -70.5667 North 250 288 5,100 -840 Descending KA90
09:10AM 42.3667 -70.6333 315° West 252 290 5,000 -60 Descending KA90
09:11AM 42.4167 -70.7000 315° West 242 278 5,000  Level KA90
09:12AM 42.4667 -70.7500 324° Northwest 236 272 5,000 -180 Level KA90
09:13AM 42.5000 -70.8000 312° West 206 237 4,700 -480 Descending KA90
09:14AM 42.5333 -70.8667 304° West 157 181 4,000 -1,080 Descending KA90
09:15AM 42.5333 -70.9167 270° West 169 194 2,600 -1,080 Descending KA90
09:16AM 42.4833 -70.9333 194° South 151 174 2,000 -420 Descending KA90
09:17AM 42.4500 -70.9667 216° Southwest 152 175 1,900 -480 Descending KA90
09:18AM 42.4167 -70.9833 200° South 111 128 1,200 -720 Descending KA90
09:19AM 42.3833 -70.9833 180° South 130 150 500 -720 Descending KA90